Eikamaru No.2 — JD3056 — position and weather

sailwx.info

Track history (hours):
 
Tides and Currents Weather Stations Pressure Air Temp Water Temp Dewpoint Dewpoint Depression Visibility Wind Speed Wind Dir Waves Ship Positions

Eikamaru No.2

Last reported at 2016-Feb-03 07:05 UTC. Time now 2016-Feb-07 15:13 UTC.
Position N 34°35' E 134°51'.

Length 60 m; draft 3.3 m.

Type: Tanker. MMSI: 431001342.

Date/timePositionNaut miles runAvg speedWind from/ knotsBaromVisibWave heightAir tempDewpointWater temp
2016-Feb-03 07:05N 34°35' E 134°51'912.2
2016-Feb-03 06:23N 34°37' E 135°01'1011.8
2016-Feb-03 05:33N 34°36' E 135°13'1010.1
2016-Feb-03 04:33N 34°34' E 135°25'0 0.1
2016-Feb-03 03:33N 34°34' E 135°25'0 0.0
2016-Feb-03 02:33N 34°34' E 135°25'0 0.0
2016-Feb-03 01:33N 34°34' E 135°25'0 0.0
2016-Feb-03 00:33N 34°34' E 135°25'0 0.0
2016-Feb-02 23:33N 34°34' E 135°25'6 6.0
2016-Feb-02 22:33N 34°35' E 135°18'1 0.7
2016-Feb-02 21:33N 34°35' E 135°18'7 6.9
2016-Feb-02 20:33N 34°29' E 135°13'1212.2
2016-Feb-02 19:33N 34°19' E 135°04'1312.1
2016-Feb-02 18:29N 34°06' E 135°02'242 6.7
2016-Feb-01 06:33N 35°11' E 139°45'1110.8
2016-Feb-01 05:33N 35°22' E 139°42'1110.9
2016-Feb-01 04:33N 35°30' E 139°51'10 9.9
2016-Feb-01 03:33N 35°32' E 140°03'0 0.1
2016-Feb-01 02:33N 35°32' E 140°03'0 0.0
2016-Feb-01 01:33N 35°32' E 140°03'0 0.0
2016-Feb-01 00:33N 35°32' E 140°03'0 0.4
2016-Jan-31 23:33N 35°32' E 140°03'8 8.4
2016-Jan-31 22:33N 35°40' E 139°59'1 0.7
2016-Jan-31 21:33N 35°41' E 139°59'0 0.0
2016-Jan-31 20:33N 35°41' E 139°59'0 0.0
2016-Jan-31 19:33N 35°41' E 139°59'0 0.0
2016-Jan-31 18:33N 35°41' E 139°59'0 0.0
2016-Jan-31 17:33N 35°41' E 139°59'0 0.0
2016-Jan-31 16:33N 35°41' E 139°59'0 0.0
2016-Jan-31 15:33N 35°41' E 139°59'0 0.0
2016-Jan-31 14:32N 35°41' E 139°59'0 0.0
2016-Jan-31 13:33N 35°41' E 139°59'0 0.0
2016-Jan-31 12:33N 35°41' E 139°59'0 0.0
2016-Jan-31 11:33N 35°41' E 139°59'0 0.0
2016-Jan-31 10:33N 35°41' E 139°59'0 0.0
2016-Jan-31 09:33N 35°41' E 139°59'0 0.0
2016-Jan-31 08:33N 35°41' E 139°59'0 0.0
2016-Jan-31 07:33N 35°41' E 139°59'0 0.0
2016-Jan-31 06:33N 35°41' E 139°59'0 0.0
2016-Jan-31 05:33N 35°41' E 139°59'0 0.0
2016-Jan-31 04:33N 35°41' E 139°59'0 0.0
2016-Jan-31 03:33N 35°41' E 139°59'0 0.0
2016-Jan-31 02:33N 35°41' E 139°59'0 0.0
2016-Jan-31 01:33N 35°41' E 139°59'0 0.0
2016-Jan-31 00:33N 35°41' E 139°59'0 0.0
2016-Jan-30 23:33N 35°41' E 139°59'2 2.4
2016-Jan-30 22:33N 35°38' E 139°59'1 1.4
2016-Jan-30 21:33N 35°37' E 139°58'0 0.0
2016-Jan-30 20:33N 35°37' E 139°58'0 0.0
2016-Jan-30 19:33N 35°37' E 139°58'0 0.0
2016-Jan-30 18:33N 35°37' E 139°58'0 0.0
2016-Jan-30 17:33N 35°37' E 139°58'0 0.0
2016-Jan-30 16:33N 35°37' E 139°58'0 0.0
2016-Jan-30 15:33N 35°37' E 139°58'0 0.0
2016-Jan-30 14:33N 35°37' E 139°58'0 0.0
2016-Jan-30 13:33N 35°37' E 139°58'0 0.0
2016-Jan-30 12:33N 35°37' E 139°58'0 0.0
2016-Jan-30 11:33N 35°37' E 139°58'0 0.0
2016-Jan-30 10:33N 35°37' E 139°58'0 0.1
2016-Jan-30 09:33N 35°37' E 139°58'1110.5
2016-Jan-30 08:33N 35°30' E 139°48'3 2.9
2016-Jan-30 07:33N 35°32' E 139°45'0 0.0
2016-Jan-30 06:33N 35°32' E 139°45'0 0.0
2016-Jan-30 05:33N 35°32' E 139°45'0 0.0
2016-Jan-30 04:33N 35°32' E 139°45'0 0.0
2016-Jan-30 03:33N 35°32' E 139°45'0 0.0
2016-Jan-30 02:33N 35°32' E 139°45'7 7.2
2016-Jan-30 01:33N 35°24' E 139°46'9 9.1
2016-Jan-30 00:33N 35°15' E 139°47'1010.0
2016-Jan-29 23:33N 35°06' E 139°44'63 6.7
2016-Jan-29 14:03N 34°33' E 138°37'183 8.5
2016-Jan-28 16:29N 34°03' E 134°59'1111.3
2016-Jan-28 15:33N 34°14' E 134°59'1110.7
2016-Jan-28 14:33N 34°25' E 135°00'1010.3
2016-Jan-28 13:33N 34°35' E 135°03'  
2016-Jan-26 07:18N 34°05' E 134°48'34 1.3
2016-Jan-25 04:30N 34°37' E 135°01'1010.5
2016-Jan-25 03:34N 34°37' E 135°13'6 5.6
2016-Jan-25 02:33N 34°42' E 135°15'0 0.0
2016-Jan-25 01:34N 34°42' E 135°15'0 0.0
2016-Jan-25 00:32N 34°42' E 135°15'0 0.0
2016-Jan-24 23:34N 34°42' E 135°15'1 1.4
2016-Jan-24 22:34N 34°41' E 135°15'4 4.3
2016-Jan-24 21:34N 34°39' E 135°19'0 0.0
2016-Jan-24 20:33N 34°39' E 135°19'0 0.0
2016-Jan-24 19:34N 34°39' E 135°19'0 0.0
2016-Jan-24 18:33N 34°39' E 135°19'0 0.0
2016-Jan-24 17:33N 34°39' E 135°19'0 0.0
2016-Jan-24 16:33N 34°39' E 135°19'0 0.0
2016-Jan-24 15:34N 34°39' E 135°19'0 0.0
2016-Jan-24 14:34N 34°39' E 135°19'0 0.0
2016-Jan-24 13:34N 34°39' E 135°19'1 0.6
2016-Jan-24 12:34N 34°38' E 135°19'1211.5
2016-Jan-24 11:33N 34°35' E 135°05'  
Track history (hours):
 
Tides and Currents Weather Stations Pressure Air Temp Water Temp Dewpoint Dewpoint Depression Visibility Wind Speed Wind Dir Waves Ship Positions

Eikamaru No.2

Last reported at 2016-Feb-03 07:05 UTC. Time now 2016-Feb-07 15:13 UTC.
Position N 34°35' E 134°51'.

Length 60 m; draft 3.3 m.

Type: Tanker. MMSI: 431001342.

Date/timePositionNaut miles runAvg speedWind from/ knotsBaromVisibWave heightAir tempDewpointWater temp
2016-Feb-03 07:05N 34°35' E 134°51'912.2
2016-Feb-03 06:23N 34°37' E 135°01'1011.8
2016-Feb-03 05:33N 34°36' E 135°13'1010.1
2016-Feb-03 04:33N 34°34' E 135°25'0 0.1
2016-Feb-03 03:33N 34°34' E 135°25'0 0.0
2016-Feb-03 02:33N 34°34' E 135°25'0 0.0
2016-Feb-03 01:33N 34°34' E 135°25'0 0.0
2016-Feb-03 00:33N 34°34' E 135°25'0 0.0
2016-Feb-02 23:33N 34°34' E 135°25'6 6.0
2016-Feb-02 22:33N 34°35' E 135°18'1 0.7
2016-Feb-02 21:33N 34°35' E 135°18'7 6.9
2016-Feb-02 20:33N 34°29' E 135°13'1212.2
2016-Feb-02 19:33N 34°19' E 135°04'1312.1
2016-Feb-02 18:29N 34°06' E 135°02'242 6.7
2016-Feb-01 06:33N 35°11' E 139°45'1110.8
2016-Feb-01 05:33N 35°22' E 139°42'1110.9
2016-Feb-01 04:33N 35°30' E 139°51'10 9.9
2016-Feb-01 03:33N 35°32' E 140°03'0 0.1
2016-Feb-01 02:33N 35°32' E 140°03'0 0.0
2016-Feb-01 01:33N 35°32' E 140°03'0 0.0
2016-Feb-01 00:33N 35°32' E 140°03'0 0.4
2016-Jan-31 23:33N 35°32' E 140°03'8 8.4
2016-Jan-31 22:33N 35°40' E 139°59'1 0.7
2016-Jan-31 21:33N 35°41' E 139°59'0 0.0
2016-Jan-31 20:33N 35°41' E 139°59'0 0.0
2016-Jan-31 19:33N 35°41' E 139°59'0 0.0
2016-Jan-31 18:33N 35°41' E 139°59'0 0.0
2016-Jan-31 17:33N 35°41' E 139°59'0 0.0
2016-Jan-31 16:33N 35°41' E 139°59'0 0.0
2016-Jan-31 15:33N 35°41' E 139°59'0 0.0
2016-Jan-31 14:32N 35°41' E 139°59'0 0.0
2016-Jan-31 13:33N 35°41' E 139°59'0 0.0
2016-Jan-31 12:33N 35°41' E 139°59'0 0.0
2016-Jan-31 11:33N 35°41' E 139°59'0 0.0
2016-Jan-31 10:33N 35°41' E 139°59'0 0.0
2016-Jan-31 09:33N 35°41' E 139°59'0 0.0
2016-Jan-31 08:33N 35°41' E 139°59'0 0.0
2016-Jan-31 07:33N 35°41' E 139°59'0 0.0
2016-Jan-31 06:33N 35°41' E 139°59'0 0.0
2016-Jan-31 05:33N 35°41' E 139°59'0 0.0
2016-Jan-31 04:33N 35°41' E 139°59'0 0.0
2016-Jan-31 03:33N 35°41' E 139°59'0 0.0
2016-Jan-31 02:33N 35°41' E 139°59'0 0.0
2016-Jan-31 01:33N 35°41' E 139°59'0 0.0
2016-Jan-31 00:33N 35°41' E 139°59'0 0.0
2016-Jan-30 23:33N 35°41' E 139°59'2 2.4
2016-Jan-30 22:33N 35°38' E 139°59'1 1.4
2016-Jan-30 21:33N 35°37' E 139°58'0 0.0
2016-Jan-30 20:33N 35°37' E 139°58'0 0.0
2016-Jan-30 19:33N 35°37' E 139°58'0 0.0
2016-Jan-30 18:33N 35°37' E 139°58'0 0.0
2016-Jan-30 17:33N 35°37' E 139°58'0 0.0
2016-Jan-30 16:33N 35°37' E 139°58'0 0.0
2016-Jan-30 15:33N 35°37' E 139°58'0 0.0
2016-Jan-30 14:33N 35°37' E 139°58'0 0.0
2016-Jan-30 13:33N 35°37' E 139°58'0 0.0
2016-Jan-30 12:33N 35°37' E 139°58'0 0.0
2016-Jan-30 11:33N 35°37' E 139°58'0 0.0
2016-Jan-30 10:33N 35°37' E 139°58'0 0.1
2016-Jan-30 09:33N 35°37' E 139°58'1110.5
2016-Jan-30 08:33N 35°30' E 139°48'3 2.9
2016-Jan-30 07:33N 35°32' E 139°45'0 0.0
2016-Jan-30 06:33N 35°32' E 139°45'0 0.0
2016-Jan-30 05:33N 35°32' E 139°45'0 0.0
2016-Jan-30 04:33N 35°32' E 139°45'0 0.0
2016-Jan-30 03:33N 35°32' E 139°45'0 0.0
2016-Jan-30 02:33N 35°32' E 139°45'7 7.2
2016-Jan-30 01:33N 35°24' E 139°46'9 9.1
2016-Jan-30 00:33N 35°15' E 139°47'1010.0
2016-Jan-29 23:33N 35°06' E 139°44'63 6.7
2016-Jan-29 14:03N 34°33' E 138°37'183 8.5
2016-Jan-28 16:29N 34°03' E 134°59'1111.3
2016-Jan-28 15:33N 34°14' E 134°59'1110.7
2016-Jan-28 14:33N 34°25' E 135°00'1010.3
2016-Jan-28 13:33N 34°35' E 135°03'  
2016-Jan-26 07:18N 34°05' E 134°48'34 1.3
2016-Jan-25 04:30N 34°37' E 135°01'1010.5
2016-Jan-25 03:34N 34°37' E 135°13'6 5.6
2016-Jan-25 02:33N 34°42' E 135°15'0 0.0
2016-Jan-25 01:34N 34°42' E 135°15'0 0.0
2016-Jan-25 00:32N 34°42' E 135°15'0 0.0
2016-Jan-24 23:34N 34°42' E 135°15'1 1.4
2016-Jan-24 22:34N 34°41' E 135°15'4 4.3
2016-Jan-24 21:34N 34°39' E 135°19'0 0.0
2016-Jan-24 20:33N 34°39' E 135°19'0 0.0
2016-Jan-24 19:34N 34°39' E 135°19'0 0.0
2016-Jan-24 18:33N 34°39' E 135°19'0 0.0
2016-Jan-24 17:33N 34°39' E 135°19'0 0.0
2016-Jan-24 16:33N 34°39' E 135°19'0 0.0
2016-Jan-24 15:34N 34°39' E 135°19'0 0.0
2016-Jan-24 14:34N 34°39' E 135°19'0 0.0
2016-Jan-24 13:34N 34°39' E 135°19'1 0.6
2016-Jan-24 12:34N 34°38' E 135°19'1211.5
2016-Jan-24 11:33N 34°35' E 135°05'  

Dump ship's entire track history